RLSO2: Arkansas River, Ralston, OK

                                SHEF ID:       RLSO2     Arkansas River at Ralston, OK
STATION TYPE:
Regulating: Stage = 16.00, Flow = 78729

PRECIP STAGE STAGE(2) RIV-FLOW AIR-TEMP BAT-LOAD
in ft ft cfs F volt
Ccp-Rev Ccp-Rev Ccp-Rev Ccp-Rev Ccp-Rev Ccp-Rev
(America/Chicago)
03/19 00:00 0.00 4.08 4.11 1181 54.50 12.68
03/19 01:00 0.00 4.08 4.10 1181 53.78 12.67
03/19 02:00 0.00 4.07 4.10 1168 52.88 12.67
03/19 03:00 0.00 4.07 4.09 1168 52.70 12.65
03/19 04:00 0.00 4.07 4.09 1168 51.44 12.65
03/19 05:00 0.00 4.05 4.08 1143 49.46 12.63
03/19 06:00 0.00 4.05 4.07 1143 48.02 12.63
03/19 07:00 0.00 4.05 4.07 1143 46.76 12.63
03/19 08:00 0.00 4.03 4.06 1118 48.02 12.62
03/19 09:00 0.00 4.02 4.05 1105 60.62 12.63
03/19 10:00 0.00 4.01 4.03 1093 66.74 12.77
03/19 11:00 0.00 3.99 4.02 1069 77.90 12.98
03/19 12:00 0.00 3.99 4.01 1069 86.90 13.01
03/19 13:00 0.00 3.98 3.99 1057 84.92 13.03
03/19 14:00 0.00 3.97 3.99 1045 87.08 13.03
03/19 15:00 0.00 3.96 3.97 1033 94.64 13.01
03/19 16:00 0.00 3.96 3.97 1033 99.86 12.96
03/19 17:00 0.00 3.95 3.96 1021 97.70 12.77
03/19 18:00 0.00 3.93 3.95 998 96.44 12.76
03/19 19:00 0.00 3.90 3.94 964 91.58 12.73
03/19 20:00 0.00 3.90 3.94 964 81.68 12.72
03/19 21:00 0.00 3.91 3.94 975 73.40 12.71
03/19 22:00 0.00 3.91 3.93 975 67.64 12.70
03/19 23:00 0.00 3.90 3.93 964 65.30 12.70
Data processed at Fri 20Mar2026 04:21 GMT

NOTICE: If you are parsing this page

Please convert to using our Data API. Starting early 2026 we will be migrating to: https://water.usace.army.mil with modern pages rendered in JavaScript. When this migration completes you will no longer be able to scrape this page! CWMSDataAPI (CDA)

Timeseries IDs (TSIDs)

TSIDs used from left to right in the data table
RALS.Precip-Inc.Total.1Hour.1Hour.Ccp-Rev
RALS.Stage.Inst.1Hour.0.Ccp-Rev
RALS.Stage-Alt.Inst.1Hour.0.Ccp-Rev
RALS.Flow.Inst.1Hour.0.Ccp-Rev
RALS.Temp-Air.Inst.1Hour.0.Ccp-Rev
RALS.Volt-Battery Load.Inst.1Hour.0.Ccp-Rev

                            

All information presented herein is the property of the government of the United States of America and may be revised or deleted at any time without prior notice. Dissemination of this information without the expressed written consent of the Public Affairs Office, Tulsa District U.S. Army Corps of Engineers is strictly prohibited. These data are gathered electronically and, as presented, have NOT undergone any form of quality control. These data are NOT guaranteed to be valid or correct.